createdAt,value
2018-09-26T00:00:04.036Z,9.20
2018-09-26T00:02:41.301Z,9.20
2018-09-26T00:05:10.265Z,9.20
2018-09-26T00:07:40.203Z,9.20
2018-09-26T00:10:09.021Z,9.20
2018-09-26T00:12:37.920Z,9.20
2018-09-26T00:15:06.835Z,9.20
2018-09-26T00:17:35.729Z,9.20
2018-09-26T00:20:04.795Z,9.10
2018-09-26T00:22:33.818Z,9.00
2018-09-26T00:25:02.577Z,9.00
2018-09-26T00:27:31.367Z,9.00
2018-09-26T00:30:00.201Z,8.90
2018-09-26T00:32:29.005Z,9.00
2018-09-26T00:34:57.868Z,8.90
2018-09-26T00:37:26.709Z,8.80
2018-09-26T00:39:56.249Z,8.80
2018-09-26T00:42:25.083Z,8.80
2018-09-26T00:44:53.941Z,8.70
2018-09-26T00:47:22.802Z,8.70
2018-09-26T00:49:51.765Z,8.60
2018-09-26T00:52:20.607Z,8.30
2018-09-26T00:54:49.518Z,8.00
2018-09-26T00:57:18.365Z,7.80
2018-09-26T00:59:47.256Z,7.70
2018-09-26T01:02:16.082Z,7.70
2018-09-26T01:04:45.075Z,7.70
2018-09-26T01:07:13.829Z,7.60
2018-09-26T01:09:42.745Z,7.60
2018-09-26T01:12:11.556Z,7.60
2018-09-26T01:14:40.342Z,7.60
2018-09-26T01:17:09.239Z,7.60
2018-09-26T01:19:38.298Z,7.50
2018-09-26T01:22:07.077Z,7.50
2018-09-26T01:24:35.897Z,7.50
2018-09-26T01:27:04.744Z,7.50
2018-09-26T01:29:33.731Z,7.50
2018-09-26T01:32:02.518Z,7.40
2018-09-26T01:34:31.463Z,7.40
2018-09-26T01:37:00.409Z,7.30
2018-09-26T01:39:29.318Z,7.30
2018-09-26T01:41:58.106Z,7.20
2018-09-26T01:44:26.860Z,7.30
2018-09-26T01:46:55.770Z,7.40
2018-09-26T01:49:24.531Z,7.30
2018-09-26T01:51:53.377Z,7.30
2018-09-26T01:54:22.278Z,7.20
2018-09-26T01:56:51.073Z,7.20
2018-09-26T01:59:19.933Z,7.20
2018-09-26T02:01:48.772Z,7.20
2018-09-26T02:04:17.567Z,7.20
2018-09-26T02:06:46.389Z,7.00
2018-09-26T02:09:15.326Z,6.80
2018-09-26T02:11:44.629Z,6.70
2018-09-26T02:14:13.416Z,6.70
2018-09-26T02:16:43.657Z,6.80
2018-09-26T02:19:13.113Z,6.80
2018-09-26T02:21:41.942Z,6.80
2018-09-26T02:24:11.037Z,6.90
2018-09-26T02:26:40.859Z,6.80
2018-09-26T02:29:09.634Z,6.80
2018-09-26T02:31:38.628Z,6.80
2018-09-26T02:34:07.521Z,6.80
2018-09-26T02:36:36.421Z,6.80
2018-09-26T02:39:06.854Z,6.70
2018-09-26T02:41:37.366Z,7.10
2018-09-26T02:44:06.390Z,7.10
2018-09-26T02:46:35.194Z,7.20
2018-09-26T02:49:06.054Z,7.10
2018-09-26T02:51:36.494Z,7.10
2018-09-26T02:54:06.081Z,7.00
2018-09-26T02:56:34.876Z,6.70
2018-09-26T02:59:03.720Z,6.50
2018-09-26T03:01:32.846Z,6.40
2018-09-26T03:04:01.617Z,6.40
2018-09-26T03:06:30.424Z,6.40
2018-09-26T03:08:59.290Z,6.40
2018-09-26T03:11:28.060Z,6.20
2018-09-26T03:13:56.849Z,6.20
2018-09-26T03:16:26.070Z,6.20
2018-09-26T03:18:54.909Z,6.20
2018-09-26T03:21:23.673Z,6.10
2018-09-26T03:23:52.818Z,6.20
2018-09-26T03:26:22.043Z,6.30
2018-09-26T03:28:50.908Z,6.30
2018-09-26T03:31:20.038Z,6.30
2018-09-26T03:33:48.929Z,6.30
2018-09-26T03:36:17.772Z,6.30
2018-09-26T03:38:46.659Z,6.40
2018-09-26T03:41:15.430Z,6.50
2018-09-26T03:43:44.197Z,6.50
2018-09-26T03:46:14.855Z,6.50
2018-09-26T03:48:43.694Z,6.40
2018-09-26T03:51:12.510Z,6.30
2018-09-26T03:53:41.664Z,6.20
2018-09-26T03:56:10.424Z,6.10
2018-09-26T03:58:39.206Z,6.00
2018-09-26T04:01:08.644Z,6.10
2018-09-26T04:03:37.438Z,6.00
2018-09-26T04:06:06.310Z,6.10
2018-09-26T04:08:35.101Z,6.10
2018-09-26T04:11:04.038Z,6.10
2018-09-26T04:13:32.900Z,6.10
2018-09-26T04:16:01.694Z,6.20
2018-09-26T04:18:30.456Z,6.20
2018-09-26T04:20:59.229Z,6.30
2018-09-26T04:23:28.014Z,6.50
2018-09-26T04:25:56.317Z,6.30
2018-09-26T04:28:24.629Z,6.00
2018-09-26T04:30:52.954Z,5.90
2018-09-26T04:33:21.834Z,5.80
2018-09-26T04:35:49.930Z,5.80
2018-09-26T04:38:18.198Z,5.70
2018-09-26T04:40:46.668Z,5.70
2018-09-26T04:43:15.011Z,5.70
2018-09-26T04:45:43.273Z,5.70
2018-09-26T04:48:11.532Z,5.70
2018-09-26T04:50:39.865Z,5.80
2018-09-26T04:53:08.342Z,5.80
2018-09-26T04:55:36.849Z,5.60
2018-09-26T04:58:05.187Z,5.60
2018-09-26T05:00:33.392Z,5.70
2018-09-26T05:03:01.811Z,5.70
2018-09-26T05:05:30.173Z,5.70
2018-09-26T05:07:58.470Z,5.60
2018-09-26T05:10:26.765Z,5.50
2018-09-26T05:12:55.079Z,5.40
2018-09-26T05:15:23.713Z,5.40
2018-09-26T05:17:51.990Z,5.30
2018-09-26T05:20:20.325Z,5.30
2018-09-26T05:22:48.635Z,5.30
2018-09-26T05:25:16.960Z,5.30
2018-09-26T05:27:45.257Z,5.30
2018-09-26T05:30:13.684Z,5.40
2018-09-26T05:32:41.965Z,5.50
2018-09-26T05:35:10.255Z,5.60
2018-09-26T05:37:38.841Z,5.70
2018-09-26T05:40:07.229Z,5.70
2018-09-26T05:42:35.578Z,5.80
2018-09-26T05:45:03.961Z,5.80
2018-09-26T05:47:32.284Z,5.90
2018-09-26T05:50:00.920Z,5.90
2018-09-26T05:52:29.187Z,5.90
2018-09-26T05:54:57.735Z,5.90
2018-09-26T05:57:25.993Z,6.00
2018-09-26T05:59:54.254Z,6.10
2018-09-26T06:02:22.560Z,6.30
2018-09-26T06:04:51.529Z,6.40
2018-09-26T06:07:19.870Z,6.50
2018-09-26T06:12:22.935Z,6.20
2018-09-26T06:14:51.210Z,6.10
2018-09-26T06:17:19.465Z,6.20
2018-09-26T06:19:49.681Z,6.40
2018-09-26T06:22:18.044Z,6.40
2018-09-26T06:24:46.609Z,6.40
2018-09-26T06:27:15.008Z,6.50
2018-09-26T06:29:44.164Z,6.50
2018-09-26T06:32:12.764Z,6.70
2018-09-26T06:34:41.286Z,6.90
2018-09-26T06:37:09.637Z,7.30
2018-09-26T06:39:37.981Z,7.60
2018-09-26T06:42:06.544Z,7.80
2018-09-26T06:44:41.621Z,8.10
2018-09-26T06:47:10.028Z,8.30
2018-09-26T06:49:38.254Z,8.30
2018-09-26T06:52:06.520Z,8.30
2018-09-26T06:54:34.838Z,8.30
2018-09-26T06:57:03.085Z,8.30
2018-09-26T06:59:31.399Z,8.50
2018-09-26T07:01:59.866Z,8.60
2018-09-26T07:04:28.159Z,8.70
2018-09-26T07:06:56.515Z,8.60
2018-09-26T07:09:24.813Z,9.10
2018-09-26T07:11:53.314Z,9.10
2018-09-26T07:14:22.177Z,9.00
2018-09-26T07:16:50.477Z,9.00
2018-09-26T07:19:18.781Z,9.20
2018-09-26T07:21:47.338Z,9.30
2018-09-26T07:24:15.740Z,9.40
2018-09-26T07:26:44.064Z,9.70
2018-09-26T07:29:12.326Z,10.20
2018-09-26T07:31:40.661Z,10.50
2018-09-26T07:34:08.992Z,10.60
2018-09-26T07:36:37.538Z,10.70
2018-09-26T07:39:08.714Z,10.70
2018-09-26T07:41:37.208Z,10.60
2018-09-26T07:44:05.477Z,11.00
2018-09-26T07:46:33.768Z,10.80
2018-09-26T07:49:02.136Z,10.90
2018-09-26T07:51:30.614Z,11.80
2018-09-26T07:53:58.932Z,12.60
2018-09-26T07:56:27.302Z,13.20
2018-09-26T07:58:56.001Z,13.90
2018-09-26T08:01:24.217Z,14.90
2018-09-26T08:03:52.886Z,15.50
2018-09-26T08:06:21.134Z,15.90
2018-09-26T08:08:49.517Z,16.00
2018-09-26T08:11:18.017Z,15.60
2018-09-26T08:13:46.457Z,15.40
2018-09-26T08:16:16.088Z,15.90
2018-09-26T08:18:44.590Z,16.90
2018-09-26T08:21:12.850Z,16.60
2018-09-26T08:23:42.067Z,16.30
2018-09-26T08:26:11.297Z,17.00
2018-09-26T08:28:39.550Z,17.10
2018-09-26T08:31:08.106Z,16.20
2018-09-26T08:33:37.255Z,16.30
2018-09-26T08:36:05.518Z,18.10
2018-09-26T08:38:33.910Z,18.60
2018-09-26T08:41:02.309Z,19.30
2018-09-26T08:43:30.620Z,18.50
2018-09-26T08:45:59.057Z,19.00
2018-09-26T08:48:27.713Z,20.20
2018-09-26T08:50:56.042Z,19.50
2018-09-26T08:53:24.350Z,19.40
2018-09-26T08:55:52.686Z,20.50
2018-09-26T08:58:20.985Z,21.50
2018-09-26T09:00:53.470Z,22.00
2018-09-26T09:03:21.745Z,21.10
2018-09-26T09:05:50.555Z,21.90
2018-09-26T09:08:19.737Z,21.80
2018-09-26T09:10:47.990Z,21.20
2018-09-26T09:13:16.548Z,21.50
2018-09-26T09:15:44.849Z,21.00
2018-09-26T09:18:13.395Z,20.60
2018-09-26T09:20:41.682Z,20.50
2018-09-26T09:23:09.958Z,20.00
2018-09-26T09:25:38.502Z,20.10
2018-09-26T09:28:06.886Z,20.30
2018-09-26T09:30:35.978Z,20.00
2018-09-26T09:33:04.535Z,19.80
2018-09-26T09:35:32.955Z,19.90
2018-09-26T09:38:01.386Z,20.50
2018-09-26T09:40:29.790Z,21.50
2018-09-26T09:42:58.066Z,22.60
2018-09-26T09:45:26.343Z,22.90
2018-09-26T09:47:54.605Z,21.10
2018-09-26T09:50:23.186Z,21.90
2018-09-26T09:52:51.505Z,22.20
2018-09-26T09:55:20.072Z,22.20
2018-09-26T09:57:48.689Z,21.80
2018-09-26T10:00:17.290Z,20.60
2018-09-26T10:02:45.578Z,20.40
2018-09-26T10:05:14.017Z,20.30
2018-09-26T10:07:42.458Z,21.20
2018-09-26T10:10:10.822Z,21.40
2018-09-26T10:12:39.265Z,21.50
2018-09-26T10:15:08.290Z,22.10
2018-09-26T10:17:37.407Z,22.80
2018-09-26T10:20:06.598Z,21.30
2018-09-26T10:22:35.365Z,20.70
2018-09-26T10:25:06.814Z,20.70
2018-09-26T10:27:35.619Z,20.30
2018-09-26T10:30:05.318Z,20.10
2018-09-26T10:32:34.131Z,20.90
2018-09-26T10:35:03.128Z,20.40
2018-09-26T10:37:32.165Z,20.60
2018-09-26T10:40:01.062Z,20.00
2018-09-26T10:42:29.890Z,19.80
2018-09-26T10:44:58.862Z,19.70
2018-09-26T10:47:27.868Z,19.20
2018-09-26T10:49:56.682Z,18.70
2018-09-26T10:52:26.076Z,18.30
2018-09-26T10:54:54.993Z,18.30
2018-09-26T10:57:23.739Z,19.10
2018-09-26T10:59:52.585Z,19.10
2018-09-26T11:02:21.427Z,19.10
2018-09-26T11:04:50.290Z,19.30
2018-09-26T11:07:19.096Z,19.20
2018-09-26T11:09:48.110Z,19.30
2018-09-26T11:12:16.931Z,19.60
2018-09-26T11:14:45.719Z,20.50
2018-09-26T11:17:14.503Z,20.60
2018-09-26T11:19:43.329Z,21.40
2018-09-26T11:22:12.425Z,23.00
2018-09-26T11:24:41.331Z,23.10
2018-09-26T11:27:10.393Z,23.20
2018-09-26T11:29:39.216Z,22.20
2018-09-26T11:32:08.250Z,21.90
2018-09-26T11:34:37.016Z,22.00
2018-09-26T11:37:06.071Z,21.00
2018-09-26T11:39:34.859Z,21.10
2018-09-26T11:42:03.712Z,20.60
2018-09-26T11:44:32.736Z,19.70
2018-09-26T11:47:01.524Z,19.90
2018-09-26T11:49:30.298Z,19.80
2018-09-26T11:51:59.102Z,19.70
2018-09-26T11:54:28.418Z,19.90
2018-09-26T11:56:57.227Z,20.00
2018-09-26T11:59:26.309Z,20.20
2018-09-26T12:01:55.252Z,19.90
2018-09-26T12:04:24.171Z,19.80
2018-09-26T12:06:53.100Z,20.00
2018-09-26T12:09:22.045Z,19.90
2018-09-26T12:11:50.936Z,19.50
2018-09-26T12:14:19.665Z,19.50
2018-09-26T12:16:48.551Z,19.80
2018-09-26T12:19:17.667Z,19.80
2018-09-26T12:21:46.434Z,19.90
2018-09-26T12:24:15.346Z,20.00
2018-09-26T12:26:44.117Z,20.10
2018-09-26T12:29:12.940Z,20.30
2018-09-26T12:31:41.685Z,20.20
2018-09-26T12:34:10.628Z,20.20
2018-09-26T12:36:39.767Z,20.10
2018-09-26T12:39:09.341Z,20.00
2018-09-26T12:41:38.100Z,19.70
2018-09-26T12:44:06.906Z,19.70
2018-09-26T12:46:38.775Z,19.60
2018-09-26T12:49:07.586Z,19.70
2018-09-26T12:51:36.462Z,19.60
2018-09-26T12:54:05.713Z,19.80
2018-09-26T12:56:34.282Z,20.00
2018-09-26T12:59:03.523Z,20.10
2018-09-26T13:01:32.379Z,20.00
2018-09-26T13:04:01.164Z,20.10
2018-09-26T13:06:29.995Z,20.00
2018-09-26T13:08:58.890Z,19.90
2018-09-26T13:11:27.755Z,19.90
2018-09-26T13:13:56.563Z,20.00
2018-09-26T13:16:25.583Z,19.90
2018-09-26T13:18:54.591Z,19.90
2018-09-26T13:21:23.410Z,20.00
2018-09-26T13:23:52.224Z,20.20
2018-09-26T13:26:21.360Z,20.30
2018-09-26T13:28:50.115Z,20.20
2018-09-26T13:31:18.923Z,20.10
2018-09-26T13:33:47.902Z,20.20
2018-09-26T13:36:16.761Z,20.30
2018-09-26T13:38:46.431Z,20.30
2018-09-26T13:41:15.278Z,20.20
2018-09-26T13:43:44.095Z,20.10
2018-09-26T13:46:12.947Z,20.10
2018-09-26T13:48:41.731Z,20.30
2018-09-26T13:51:10.595Z,20.00
2018-09-26T13:53:39.375Z,20.00
2018-09-26T13:56:08.263Z,19.90
2018-09-26T13:58:37.192Z,20.20
2018-09-26T14:01:06.247Z,20.00
2018-09-26T14:03:34.970Z,20.00
2018-09-26T14:06:03.789Z,20.10
2018-09-26T14:08:32.642Z,20.10
2018-09-26T14:11:01.442Z,20.00
2018-09-26T14:13:30.273Z,19.90
2018-09-26T14:15:59.035Z,20.00
2018-09-26T14:29:52.245Z,19.70
2018-09-26T14:33:33.776Z,20.20
2018-09-26T14:36:03.538Z,20.40
2018-09-26T14:38:33.403Z,20.50
2018-09-26T14:41:03.182Z,20.50
2018-09-26T14:43:33.048Z,20.50
2018-09-26T14:46:02.945Z,20.40
2018-09-26T14:48:32.711Z,20.50
2018-09-26T14:51:02.520Z,20.40
2018-09-26T14:53:32.281Z,20.40
2018-09-26T14:56:02.062Z,20.40
2018-09-26T14:58:31.902Z,20.40
2018-09-26T15:01:01.652Z,20.50
2018-09-26T15:03:31.606Z,20.60
2018-09-26T15:06:01.561Z,20.40
2018-09-26T15:08:31.540Z,20.40
2018-09-26T15:11:01.420Z,20.30
2018-09-26T15:13:31.273Z,20.30
2018-09-26T15:16:01.289Z,20.20
2018-09-26T15:18:31.143Z,20.30
2018-09-26T15:21:00.895Z,20.30
2018-09-26T15:23:30.962Z,20.10
2018-09-26T15:26:00.787Z,20.10
2018-09-26T15:28:30.978Z,20.00
2018-09-26T15:31:00.700Z,20.00
2018-09-26T15:33:30.618Z,19.90
2018-09-26T15:36:00.391Z,19.90
2018-09-26T15:38:30.898Z,19.80
2018-09-26T15:41:00.635Z,19.60
2018-09-26T15:43:30.628Z,19.50
2018-09-26T15:46:00.463Z,19.50
2018-09-26T15:48:30.407Z,19.40
2018-09-26T15:51:00.710Z,19.40
2018-09-26T15:53:30.518Z,19.30
2018-09-26T15:56:00.775Z,19.20
2018-09-26T15:58:30.868Z,19.20
2018-09-26T16:01:01.056Z,19.20
2018-09-26T16:03:30.823Z,19.20
2018-09-26T16:06:00.669Z,19.10
2018-09-26T16:08:30.540Z,19.00
2018-09-26T16:11:07.151Z,18.90
2018-09-26T16:13:37.019Z,18.80
2018-09-26T16:16:07.088Z,18.70
2018-09-26T16:18:37.018Z,18.60
2018-09-26T16:21:07.433Z,18.40
2018-09-26T16:23:37.976Z,18.30
2018-09-26T16:26:07.865Z,18.30
2018-09-26T16:28:37.615Z,18.20
2018-09-26T16:31:07.941Z,18.10
2018-09-26T16:33:37.742Z,18.10
2018-09-26T16:36:08.360Z,18.00
2018-09-26T16:38:38.511Z,17.90
2018-09-26T16:41:08.321Z,17.70
2018-09-26T16:43:38.329Z,17.70
2018-09-26T16:46:08.401Z,17.60
2018-09-26T16:48:38.158Z,17.50
2018-09-26T16:51:08.151Z,17.40
2018-09-26T16:53:38.362Z,17.40
2018-09-26T16:56:08.759Z,17.30
2018-09-26T16:58:38.516Z,17.30
2018-09-26T17:01:08.358Z,17.20
2018-09-26T17:03:38.542Z,17.10
2018-09-26T17:06:08.419Z,17.10
2018-09-26T17:08:38.211Z,16.90
2018-09-26T17:11:08.166Z,16.90
2018-09-26T17:13:38.031Z,16.80
2018-09-26T17:16:08.192Z,16.70
2018-09-26T17:18:38.576Z,16.70
2018-09-26T17:21:08.384Z,16.60
2018-09-26T17:23:38.439Z,16.50
2018-09-26T17:26:08.571Z,16.40
2018-09-26T17:28:38.414Z,16.20
2018-09-26T17:31:08.162Z,16.10
2018-09-26T17:33:38.097Z,15.90
2018-09-26T17:36:08.025Z,15.80
2018-09-26T17:38:37.936Z,15.70
2018-09-26T17:41:07.969Z,15.60
2018-09-26T17:43:37.958Z,15.50
2018-09-26T17:46:08.748Z,15.40
2018-09-26T17:48:39.078Z,15.30
2018-09-26T17:51:09.755Z,15.20
2018-09-26T17:53:39.570Z,15.10
2018-09-26T17:56:09.395Z,15.00
2018-09-26T17:58:39.403Z,14.90
2018-09-26T18:01:09.467Z,14.90
2018-09-26T18:03:39.812Z,14.80
2018-09-26T18:06:09.543Z,14.70
2018-09-26T18:08:39.522Z,14.60
2018-09-26T18:11:09.307Z,14.50
2018-09-26T18:13:39.116Z,14.40
2018-09-26T18:16:08.933Z,14.30
2018-09-26T18:18:38.763Z,14.30
2018-09-26T18:21:08.554Z,14.20
2018-09-26T18:23:38.887Z,14.10
2018-09-26T18:26:08.719Z,14.10
2018-09-26T18:28:38.687Z,14.00
2018-09-26T18:31:08.625Z,14.00
2018-09-26T18:33:38.590Z,13.90
2018-09-26T18:36:08.984Z,13.90
2018-09-26T18:38:38.942Z,13.80
2018-09-26T18:41:08.754Z,13.80
2018-09-26T18:43:38.713Z,13.80
2018-09-26T18:46:09.067Z,13.80
2018-09-26T18:48:39.250Z,13.70
2018-09-26T18:51:09.121Z,13.60
2018-09-26T18:53:39.627Z,13.50
2018-09-26T18:56:09.906Z,13.40
2018-09-26T18:58:39.751Z,13.30
2018-09-26T19:01:09.712Z,13.30
2018-09-26T19:03:39.526Z,13.20
2018-09-26T19:06:09.408Z,13.20
2018-09-26T19:08:39.239Z,13.10
2018-09-26T19:11:09.039Z,13.10
2018-09-26T19:13:38.877Z,13.00
2018-09-26T19:16:08.771Z,13.00
2018-09-26T19:18:38.559Z,13.00
2018-09-26T19:21:08.716Z,13.00
2018-09-26T19:23:38.484Z,12.90
2018-09-26T19:26:08.630Z,12.90
2018-09-26T19:28:38.379Z,12.80
2018-09-26T19:31:08.783Z,12.80
2018-09-26T19:33:38.814Z,12.70
2018-09-26T19:36:08.915Z,12.60
2018-09-26T19:38:38.924Z,12.50
2018-09-26T19:41:08.675Z,12.50
2018-09-26T19:43:38.444Z,12.30
2018-09-26T19:46:08.378Z,12.20
2018-09-26T19:48:38.147Z,12.10
2018-09-26T19:51:07.990Z,12.10
2018-09-26T19:53:37.690Z,12.10
2018-09-26T19:56:07.547Z,12.00
2018-09-26T19:58:37.284Z,12.00
2018-09-26T20:01:07.330Z,12.10
2018-09-26T20:03:37.341Z,12.00
2018-09-26T20:06:07.122Z,11.90
2018-09-26T20:08:37.287Z,11.90
2018-09-26T20:11:07.142Z,12.00
2018-09-26T20:13:36.906Z,12.00
2018-09-26T20:16:06.807Z,12.00
2018-09-26T20:18:37.002Z,11.90
2018-09-26T20:21:07.001Z,11.90
2018-09-26T20:23:37.450Z,11.80
2018-09-26T20:26:07.299Z,11.80
2018-09-26T20:28:37.162Z,11.70
2018-09-26T20:31:07.103Z,11.60
2018-09-26T20:33:36.883Z,11.50
2018-09-26T20:36:06.623Z,11.40
2018-09-26T20:38:36.406Z,11.40
2018-09-26T20:41:06.594Z,11.40
2018-09-26T20:43:36.331Z,11.30
2018-09-26T20:46:06.788Z,11.20
2018-09-26T20:48:36.588Z,11.10
2018-09-26T20:51:06.339Z,11.10
2018-09-26T20:53:36.122Z,11.10
2018-09-26T20:56:06.062Z,11.10
2018-09-26T20:58:35.892Z,11.10
2018-09-26T21:01:05.639Z,11.10
2018-09-26T21:03:35.822Z,11.00
2018-09-26T21:06:05.583Z,11.00
2018-09-26T21:08:35.388Z,11.00
2018-09-26T21:11:05.576Z,10.80
2018-09-26T21:13:35.384Z,10.80
2018-09-26T21:16:05.550Z,10.80
2018-09-26T21:18:35.308Z,10.80
2018-09-26T21:21:05.064Z,10.80
2018-09-26T21:23:34.883Z,10.80
2018-09-26T21:26:04.874Z,10.80
2018-09-26T21:28:34.651Z,10.80
2018-09-26T21:31:04.812Z,10.70
2018-09-26T21:33:34.782Z,10.70
2018-09-26T21:36:04.619Z,10.70
2018-09-26T21:38:34.535Z,10.60
2018-09-26T21:41:04.585Z,10.50
2018-09-26T21:43:34.626Z,10.50
2018-09-26T21:46:04.480Z,10.40
2018-09-26T21:48:34.357Z,10.40
2018-09-26T21:51:04.268Z,10.40
2018-09-26T21:53:34.413Z,10.40
2018-09-26T21:56:04.321Z,10.30
2018-09-26T21:58:34.468Z,10.30
2018-09-26T22:01:05.330Z,10.30
2018-09-26T22:03:35.658Z,10.40
2018-09-26T22:06:05.840Z,10.20
2018-09-26T22:08:36.059Z,10.20
2018-09-26T22:11:05.974Z,10.10
2018-09-26T22:13:35.767Z,10.10
2018-09-26T22:16:05.605Z,10.10
2018-09-26T22:18:35.485Z,10.10
2018-09-26T22:21:05.266Z,10.10
2018-09-26T22:23:35.224Z,10.00
2018-09-26T22:26:05.063Z,10.00
2018-09-26T22:28:35.139Z,9.90
2018-09-26T22:31:05.220Z,9.80
2018-09-26T22:33:34.954Z,9.80
2018-09-26T22:36:04.718Z,9.80
2018-09-26T22:38:34.651Z,9.80
2018-09-26T22:41:04.421Z,9.80
2018-09-26T22:43:34.227Z,9.70
2018-09-26T22:46:03.981Z,9.70
2018-09-26T22:48:33.906Z,9.70
2018-09-26T22:51:03.733Z,9.70
2018-09-26T22:53:33.463Z,9.60
2018-09-26T22:56:03.232Z,9.60
2018-09-26T22:58:33.176Z,9.60
2018-09-26T23:01:02.927Z,9.50
2018-09-26T23:03:32.798Z,9.60
2018-09-26T23:06:02.559Z,9.60
2018-09-26T23:08:32.482Z,9.50
2018-09-26T23:11:02.291Z,9.40
2018-09-26T23:13:32.319Z,9.50
2018-09-26T23:16:02.477Z,9.50
2018-09-26T23:18:32.336Z,9.40
2018-09-26T23:21:02.219Z,9.40
2018-09-26T23:23:32.226Z,9.40
2018-09-26T23:26:02.212Z,9.40
2018-09-26T23:28:32.382Z,9.40
2018-09-26T23:31:02.642Z,9.40
2018-09-26T23:33:32.456Z,9.40
2018-09-26T23:36:02.284Z,9.40
2018-09-26T23:38:32.027Z,9.30
2018-09-26T23:41:01.784Z,9.40
2018-09-26T23:43:31.642Z,9.30
2018-09-26T23:46:01.470Z,9.20
2018-09-26T23:48:31.218Z,9.20
2018-09-26T23:51:00.963Z,9.20
2018-09-26T23:53:30.826Z,9.20
2018-09-26T23:56:00.763Z,9.20
2018-09-26T23:58:30.526Z,9.20
